Time;durP1;ratioP1;P1;durP2;ratioP2;P2;SDS_P1;SDS_P2;PMS_P1;PMS_P2;Temp;Humidity;BMP_temperature;BMP_pressure;BME280_temperature;BME280_humidity;BME280_pressure;Samples;Min_cycle;Max_cycle;Signal;HPM_P1;HPM_P2
2023/10/30 00:01:39;;;;;;;5.70;2.33;;;0.20;99.90;;;;;;4996124;28;20200;-93
2023/10/30 00:04:07;;;;;;;4.85;2.28;;;0.20;99.90;;;;;;4996341;28;20195;-93
2023/10/30 00:06:35;;;;;;;4.32;2.38;;;0.20;99.90;;;;;;5025673;28;20194;-93
2023/10/30 00:09:03;;;;;;;3.88;1.65;;;0.20;99.90;;;;;;5031764;28;20648;-91
2023/10/30 00:11:31;;;;;;;4.72;2.13;;;0.10;99.90;;;;;;5048381;28;20221;-92
2023/10/30 00:14:00;;;;;;;4.45;2.10;;;0.20;99.90;;;;;;5048584;28;20205;-92
2023/10/30 00:16:28;;;;;;;5.75;2.53;;;0.20;99.90;;;;;;5015598;28;20190;-92
2023/10/30 00:18:58;;;;;;;3.88;2.03;;;0.20;99.90;;;;;;5048482;28;20632;-92
2023/10/30 00:21:26;;;;;;;3.67;1.70;;;0.20;99.90;;;;;;5015285;28;20195;-94
2023/10/30 00:23:54;;;;;;;4.05;2.20;;;0.20;99.90;;;;;;5031955;28;20210;-93
2023/10/30 00:26:22;;;;;;;3.72;2.00;;;0.20;99.90;;;;;;5048172;28;20193;-92
2023/10/30 00:28:51;;;;;;;4.15;2.00;;;0.20;99.90;;;;;;5048760;28;20182;-94
2023/10/30 00:31:19;;;;;;;3.28;1.67;;;0.20;99.90;;;;;;5015999;28;20644;-92
2023/10/30 00:33:48;;;;;;;3.72;1.95;;;0.20;99.90;;;;;;5048033;28;20707;-92
2023/10/30 00:36:16;;;;;;;3.55;1.50;;;0.20;99.90;;;;;;5031287;28;20664;-93
2023/10/30 00:38:45;;;;;;;3.10;1.88;;;0.30;99.90;;;;;;5048282;28;20190;-94
2023/10/30 00:41:12;;;;;;;3.97;2.00;;;0.20;99.90;;;;;;5048038;28;20281;-93
2023/10/30 00:43:42;;;;;;;4.78;1.83;;;0.20;99.90;;;;;;5047344;28;20223;-93
2023/10/30 00:46:10;;;;;;;3.50;1.80;;;0.20;99.90;;;;;;5015609;28;20229;-93
2023/10/30 00:48:38;;;;;;;3.40;1.73;;;0.30;99.90;;;;;;5048116;28;20213;-93
2023/10/30 00:51:07;;;;;;;3.97;1.70;;;0.30;99.90;;;;;;5047779;28;20687;-93
2023/10/30 00:53:35;;;;;;;3.25;1.58;;;0.30;99.90;;;;;;5047889;28;20615;-93
2023/10/30 00:56:03;;;;;;;5.45;2.13;;;0.30;99.90;;;;;;5014390;28;20217;-92
2023/10/30 00:58:31;;;;;;;3.92;1.83;;;0.30;99.90;;;;;;5031383;28;20186;-92
2023/10/30 01:00:59;;;;;;;3.60;1.60;;;0.40;99.90;;;;;;5014936;28;20212;-93
2023/10/30 01:03:26;;;;;;;3.80;1.63;;;0.30;99.90;;;;;;5031083;28;20197;-93
2023/10/30 01:05:59;;;;;;;3.35;2.20;;;0.30;99.90;;;;;;5030653;28;20558;-93
2023/10/30 01:08:28;;;;;;;3.75;1.77;;;0.30;99.90;;;;;;5030091;28;20190;-93
2023/10/30 01:10:56;;;;;;;16.77;3.15;;;0.20;99.90;;;;;;5030336;28;20678;-93
2023/10/30 01:13:25;;;;;;;6.47;1.85;;;0.30;99.90;;;;;;5031606;28;20641;-94
2023/10/30 01:15:55;;;;;;;2.25;1.50;;;0.30;99.90;;;;;;5047406;28;20209;-94
2023/10/30 01:18:24;;;;;;;4.45;1.83;;;0.30;99.90;;;;;;5047260;28;20197;-93
2023/10/30 01:20:52;;;;;;;3.55;1.77;;;0.30;99.90;;;;;;5014878;28;20635;-94
2023/10/30 01:23:21;;;;;;;3.90;1.73;;;0.30;99.90;;;;;;5047534;28;20226;-93
2023/10/30 01:25:49;;;;;;;6.90;1.88;;;0.30;99.90;;;;;;5047385;28;20815;-93
2023/10/30 01:28:17;;;;;;;3.85;2.00;;;0.30;99.90;;;;;;5047307;28;20193;-94
2023/10/30 01:30:45;;;;;;;4.35;1.85;;;0.30;99.90;;;;;;5016941;28;20178;-93
2023/10/30 01:33:13;;;;;;;3.92;1.63;;;0.40;99.90;;;;;;5035585;28;20225;-91
2023/10/30 01:35:42;;;;;;;3.20;1.77;;;0.30;99.90;;;;;;5019379;28;20221;-90
2023/10/30 01:38:10;;;;;;;9.27;2.03;;;0.20;99.90;;;;;;5051253;28;20190;-92
2023/10/30 01:40:49;;;;;;;2.75;1.48;;;0.20;99.90;;;;;;5035486;28;20182;-93
2023/10/30 01:43:33;;;;;;;5.75;2.00;;;0.20;99.90;;;;;;5036808;28;20186;-90
2023/10/30 01:46:02;;;;;;;3.47;1.75;;;0.20;99.90;;;;;;5052741;28;20186;-91
2023/10/30 01:48:32;;;;;;;3.90;1.70;;;0.20;99.90;;;;;;5036864;28;20204;-92
2023/10/30 01:51:01;;;;;;;3.75;1.88;;;0.30;99.90;;;;;;5037825;28;20178;-90
2023/10/30 01:53:33;;;;;;;3.80;1.95;;;0.40;99.90;;;;;;5055131;28;20202;-90
2023/10/30 01:56:03;;;;;;;3.47;1.42;;;0.40;99.90;;;;;;5022412;28;20201;-93
2023/10/30 01:58:31;;;;;;;3.90;2.08;;;0.40;99.90;;;;;;5039056;28;20208;-92
2023/10/30 02:01:01;;;;;;;3.17;1.77;;;0.50;99.90;;;;;;5039824;28;20236;-91
2023/10/30 02:03:29;;;;;;;13.32;2.47;;;0.50;99.90;;;;;;5040440;28;20198;-90
2023/10/30 02:05:57;;;;;;;24.92;3.22;;;0.40;99.90;;;;;;5056645;28;20225;-92
2023/10/30 02:08:25;;;;;;;3.65;1.73;;;0.30;99.90;;;;;;5059993;28;20205;-91
2023/10/30 02:10:54;;;;;;;3.65;1.65;;;0.40;99.90;;;;;;5027994;28;20201;-90
2023/10/30 02:13:22;;;;;;;2.97;1.60;;;0.30;99.90;;;;;;5061196;28;20217;-89
2023/10/30 02:15:50;;;;;;;2.97;1.65;;;0.40;99.90;;;;;;5045348;28;20562;-91
2023/10/30 02:18:18;;;;;;;53.40;5.07;;;0.30;99.90;;;;;;5045026;28;20186;-92
2023/10/30 02:20:47;;;;;;;9.57;2.63;;;0.30;99.90;;;;;;5061323;28;20194;-90
2023/10/30 02:23:15;;;;;;;40.67;4.38;;;0.20;99.90;;;;;;5045853;28;20268;-90
2023/10/30 02:25:43;;;;;;;3.20;1.67;;;0.30;99.90;;;;;;5044952;28;20198;-92
2023/10/30 02:28:11;;;;;;;18.88;2.25;;;0.30;99.90;;;;;;5045356;28;20266;-91
2023/10/30 02:30:39;;;;;;;9.45;1.77;;;0.30;99.90;;;;;;5045301;28;20186;-91
2023/10/30 02:33:07;;;;;;;8.07;2.17;;;0.30;99.90;;;;;;5062428;28;20244;-91
2023/10/30 02:35:36;;;;;;;4.70;1.55;;;0.30;99.90;;;;;;5062084;28;20699;-92
2023/10/30 02:38:04;;;;;;;2.67;1.38;;;0.40;99.90;;;;;;5029054;28;20194;-90
2023/10/30 02:40:33;;;;;;;3.50;1.80;;;0.40;99.90;;;;;;5062232;28;20190;-90
2023/10/30 02:43:02;;;;;;;3.80;1.70;;;0.40;99.90;;;;;;5078866;28;20879;-89
2023/10/30 02:45:30;;;;;;;2.80;1.48;;;0.40;99.90;;;;;;5062026;28;20194;-91
2023/10/30 02:47:58;;;;;;;5.72;1.80;;;0.50;99.90;;;;;;5062311;28;20178;-90
2023/10/30 02:50:26;;;;;;;4.07;1.77;;;0.50;99.90;;;;;;5045578;28;20206;-89
2023/10/30 02:52:54;;;;;;;4.93;2.08;;;0.40;99.90;;;;;;5028683;28;20226;-91
2023/10/30 02:55:22;;;;;;;10.48;2.22;;;0.40;99.90;;;;;;5061255;28;20197;-90
2023/10/30 02:57:50;;;;;;;25.73;2.95;;;0.40;99.90;;;;;;5044650;28;20189;-91
2023/10/30 03:00:21;;;;;;;47.88;4.72;;;0.50;99.90;;;;;;5028977;28;20225;-89
2023/10/30 03:02:49;;;;;;;3.45;1.73;;;0.50;99.90;;;;;;5045251;28;20189;-90
2023/10/30 03:05:17;;;;;;;6.57;1.70;;;0.50;99.90;;;;;;5028784;28;20281;-90
2023/10/30 03:07:45;;;;;;;3.13;1.50;;;0.40;99.90;;;;;;5044381;28;20710;-92
2023/10/30 03:10:14;;;;;;;4.07;1.77;;;0.50;99.90;;;;;;5044450;28;20198;-92
2023/10/30 03:12:42;;;;;;;9.23;2.00;;;0.50;99.90;;;;;;5041318;28;20275;-92
2023/10/30 03:15:10;;;;;;;3.75;1.90;;;0.50;99.90;;;;;;5018835;28;20196;-93
2023/10/30 03:17:38;;;;;;;3.13;1.40;;;0.50;99.90;;;;;;5055706;28;20186;-90
2023/10/30 03:20:08;;;;;;;3.20;1.45;;;0.50;99.90;;;;;;5035096;28;20667;-94
2023/10/30 03:22:35;;;;;;;4.47;1.60;;;0.50;99.90;;;;;;5049510;28;20257;-91
2023/10/30 03:25:04;;;;;;;2.22;1.00;;;0.50;99.90;;;;;;5035367;28;20182;-91
2023/10/30 03:27:32;;;;;;;3.38;1.05;;;0.50;99.90;;;;;;5050060;28;20214;-92
2023/10/30 03:30:00;;;;;;;1.60;0.90;;;0.50;99.90;;;;;;5033200;28;20190;-92
2023/10/30 03:32:28;;;;;;;2.47;0.70;;;0.50;99.90;;;;;;5016211;28;20287;-91
2023/10/30 03:34:56;;;;;;;1.27;0.65;;;0.50;99.90;;;;;;5048896;28;20676;-93
2023/10/30 03:37:24;;;;;;;0.68;0.50;;;0.50;99.90;;;;;;5048924;28;20205;-92
2023/10/30 03:39:52;;;;;;;1.13;0.65;;;0.50;99.90;;;;;;5034025;28;20175;-92
2023/10/30 03:42:19;;;;;;;0.85;0.60;;;0.50;99.90;;;;;;5049521;28;20182;-91
2023/10/30 03:44:47;;;;;;;1.75;0.60;;;0.50;99.90;;;;;;5048621;28;20698;-90
2023/10/30 03:47:16;;;;;;;0.82;0.43;;;0.60;99.90;;;;;;5047928;28;20181;-91
2023/10/30 03:49:45;;;;;;;1.17;0.60;;;0.50;99.90;;;;;;5049071;28;20194;-91
2023/10/30 03:52:13;;;;;;;0.98;0.50;;;0.60;99.90;;;;;;5016157;28;20189;-91
2023/10/30 03:54:41;;;;;;;1.38;0.65;;;0.60;99.90;;;;;;5048798;28;20193;-91
2023/10/30 03:57:08;;;;;;;0.95;0.50;;;0.60;99.90;;;;;;5049399;28;20186;-91
2023/10/30 03:59:36;;;;;;;1.20;0.60;;;0.60;99.90;;;;;;5032453;28;20217;-92
2023/10/30 04:02:04;;;;;;;1.42;0.70;;;0.50;99.90;;;;;;5032471;28;20244;-91
2023/10/30 04:04:32;;;;;;;0.80;0.50;;;0.60;99.90;;;;;;5016132;28;20190;-92
2023/10/30 04:07:01;;;;;;;1.27;0.65;;;0.60;99.90;;;;;;5031974;28;20820;-92
2023/10/30 04:09:32;;;;;;;0.88;0.63;;;0.60;99.90;;;;;;5046683;28;20272;-92
2023/10/30 04:12:02;;;;;;;1.45;1.13;;;0.60;99.90;;;;;;5032553;28;20248;-95
2023/10/30 04:14:30;;;;;;;1.63;0.60;;;0.70;99.90;;;;;;5048766;28;20209;-92
2023/10/30 04:16:59;;;;;;;1.95;1.00;;;0.60;99.90;;;;;;5031825;28;20193;-91
2023/10/30 04:19:26;;;;;;;1.45;0.82;;;0.60;99.90;;;;;;5047753;28;20252;-93
2023/10/30 04:21:54;;;;;;;1.73;0.60;;;0.70;99.90;;;;;;5048551;28;20213;-92
2023/10/30 04:24:22;;;;;;;1.55;0.90;;;0.60;99.90;;;;;;5048482;28;20289;-92
2023/10/30 04:26:50;;;;;;;4.22;0.80;;;0.60;99.90;;;;;;5048175;28;20235;-91
2023/10/30 04:29:18;;;;;;;2.00;0.93;;;0.60;99.90;;;;;;5047903;28;20213;-92
2023/10/30 04:31:45;;;;;;;2.05;0.88;;;0.70;99.90;;;;;;5031350;28;21047;-94
2023/10/30 04:34:13;;;;;;;1.52;0.73;;;0.60;99.90;;;;;;5031386;28;20230;-92
2023/10/30 04:36:41;;;;;;;2.45;0.82;;;0.70;99.90;;;;;;5031982;28;20240;-92
2023/10/30 04:39:10;;;;;;;1.80;0.75;;;0.60;99.90;;;;;;5048197;28;20186;-93
2023/10/30 04:41:38;;;;;;;1.40;0.80;;;0.70;99.90;;;;;;5029670;28;20190;-92
2023/10/30 04:44:06;;;;;;;1.60;0.80;;;0.70;99.90;;;;;;5046375;28;20197;-94
2023/10/30 04:46:34;;;;;;;1.42;0.80;;;0.70;99.90;;;;;;5030255;28;20512;-93
2023/10/30 04:49:01;;;;;;;1.70;0.93;;;0.70;99.90;;;;;;5015087;28;20196;-92
2023/10/30 04:51:29;;;;;;;2.03;0.90;;;0.70;99.90;;;;;;5029518;28;20190;-93
2023/10/30 04:53:57;;;;;;;1.65;0.80;;;0.70;99.90;;;;;;5029656;28;20233;-93
2023/10/30 04:56:24;;;;;;;1.95;0.85;;;0.70;99.90;;;;;;5029443;28;20178;-93
2023/10/30 04:58:52;;;;;;;2.17;0.82;;;0.70;99.90;;;;;;5029495;28;20197;-93
2023/10/30 05:01:20;;;;;;;1.17;0.50;;;0.80;99.90;;;;;;5012775;28;20208;-92
2023/10/30 05:03:48;;;;;;;1.35;0.63;;;0.70;99.90;;;;;;5029285;28;20189;-91
2023/10/30 05:06:16;;;;;;;1.20;0.70;;;0.70;99.90;;;;;;5029003;28;20247;-92
2023/10/30 05:08:45;;;;;;;1.55;0.60;;;0.70;99.90;;;;;;5029226;28;20679;-94
2023/10/30 05:11:12;;;;;;;1.23;0.75;;;0.60;99.90;;;;;;5028994;28;20710;-92
2023/10/30 05:13:40;;;;;;;1.05;0.47;;;0.60;99.90;;;;;;5012472;28;20329;-93
2023/10/30 05:16:08;;;;;;;1.25;0.68;;;0.60;99.90;;;;;;5028564;28;20185;-93
2023/10/30 05:18:36;;;;;;;1.38;0.57;;;0.60;99.90;;;;;;5013028;28;20227;-93
2023/10/30 05:21:04;;;;;;;0.90;0.50;;;0.60;99.90;;;;;;5062354;28;20184;-94
2023/10/30 05:23:31;;;;;;;1.50;0.57;;;0.60;99.90;;;;;;5012672;28;20271;-94
2023/10/30 05:25:59;;;;;;;0.93;0.52;;;0.70;99.90;;;;;;5045335;28;20447;-92
2023/10/30 05:28:27;;;;;;;1.92;0.57;;;0.60;99.90;;;;;;5029177;28;20285;-95
2023/10/30 05:30:55;;;;;;;0.80;0.40;;;0.60;99.90;;;;;;5028908;28;20186;-92
2023/10/30 05:33:23;;;;;;;1.02;0.50;;;0.70;99.90;;;;;;5045526;28;20206;-93
2023/10/30 05:35:52;;;;;;;0.95;0.43;;;0.70;99.90;;;;;;5031513;28;20244;-93
2023/10/30 05:38:19;;;;;;;0.28;0.22;;;0.70;99.90;;;;;;5030726;28;20952;-94
2023/10/30 05:40:47;;;;;;;0.43;0.40;;;0.70;99.90;;;;;;5031176;28;20193;-95
2023/10/30 05:43:15;;;;;;;0.60;0.30;;;0.70;99.90;;;;;;5018846;28;20198;-94
2023/10/30 05:45:43;;;;;;;0.45;0.30;;;0.70;99.90;;;;;;5018177;28;20202;-93
2023/10/30 05:48:10;;;;;;;0.60;0.30;;;0.80;99.90;;;;;;4999336;28;20198;-93
2023/10/30 05:50:38;;;;;;;0.88;0.40;;;0.80;99.90;;;;;;5024527;28;20198;-93
2023/10/30 05:53:06;;;;;;;0.50;0.32;;;0.70;99.90;;;;;;5021598;28;20679;-94
2023/10/30 05:55:34;;;;;;;0.47;0.40;;;0.80;99.90;;;;;;5036545;28;20193;-94
2023/10/30 05:58:02;;;;;;;0.30;0.30;;;0.80;99.90;;;;;;5021107;28;20217;-94
2023/10/30 06:00:30;;;;;;;0.50;0.30;;;0.80;99.90;;;;;;5035112;28;20194;-93
2023/10/30 06:02:57;;;;;;;0.50;0.40;;;0.70;99.90;;;;;;5031879;28;20187;-94
2023/10/30 06:05:26;;;;;;;0.82;0.17;;;0.70;99.90;;;;;;5032147;28;20182;-92
2023/10/30 06:07:54;;;;;;;0.40;0.28;;;0.70;99.90;;;;;;5031786;28;20182;-93
2023/10/30 06:10:23;;;;;;;1.65;0.30;;;0.70;99.90;;;;;;5042351;28;20205;-93
2023/10/30 06:12:51;;;;;;;1.73;0.30;;;0.70;99.90;;;;;;5062880;28;20189;-93
2023/10/30 06:15:19;;;;;;;0.43;0.28;;;0.70;99.90;;;;;;5035354;28;20198;-92
2023/10/30 06:17:46;;;;;;;0.50;0.40;;;0.70;99.90;;;;;;5035124;28;20193;-92
2023/10/30 06:20:14;;;;;;;0.65;0.30;;;0.70;99.90;;;;;;5030327;28;20271;-91
2023/10/30 06:22:42;;;;;;;0.95;0.38;;;0.70;99.90;;;;;;5035554;28;20606;-92
2023/10/30 06:25:10;;;;;;;0.30;0.30;;;0.70;99.90;;;;;;5051874;28;20225;-92
2023/10/30 06:27:41;;;;;;;0.47;0.20;;;0.70;99.90;;;;;;5035834;28;20228;-93
2023/10/30 06:30:12;;;;;;;4.78;0.50;;;0.80;99.90;;;;;;5051558;28;20194;-94
2023/10/30 06:32:41;;;;;;;0.30;0.30;;;0.90;99.90;;;;;;5052269;28;20186;-91
2023/10/30 06:35:09;;;;;;;0.52;0.25;;;0.80;99.90;;;;;;5034621;28;20324;-92
2023/10/30 06:37:38;;;;;;;1.08;0.30;;;0.80;99.90;;;;;;5035057;28;20266;-93
2023/10/30 06:40:07;;;;;;;1.27;0.40;;;0.80;99.90;;;;;;5019003;28;20305;-92
2023/10/30 06:42:35;;;;;;;0.82;0.40;;;0.80;99.90;;;;;;5035143;28;20285;-92
2023/10/30 06:45:03;;;;;;;0.80;0.38;;;0.80;99.90;;;;;;5034621;28;20606;-91
2023/10/30 06:47:31;;;;;;;0.30;0.30;;;0.80;99.90;;;;;;5033806;28;20200;-91
2023/10/30 06:49:59;;;;;;;0.30;0.30;;;0.80;99.90;;;;;;5035524;28;20186;-91
2023/10/30 06:52:26;;;;;;;1.98;0.68;;;0.80;99.90;;;;;;5033942;28;20197;-92
2023/10/30 06:54:54;;;;;;;3.70;0.60;;;0.90;99.90;;;;;;5014568;28;20229;-92
2023/10/30 06:57:22;;;;;;;5.18;0.73;;;0.90;99.90;;;;;;5031728;28;20197;-92
2023/10/30 06:59:52;;;;;;;2.05;1.00;;;0.90;99.90;;;;;;5032900;28;20186;-92
2023/10/30 07:02:20;;;;;;;7.05;0.73;;;1.00;99.90;;;;;;5031670;28;20628;-91
2023/10/30 07:04:48;;;;;;;2.30;0.73;;;1.00;99.90;;;;;;5031742;28;20202;-91
2023/10/30 07:07:16;;;;;;;3.55;0.80;;;1.10;99.90;;;;;;5047887;28;20256;-92
2023/10/30 07:09:44;;;;;;;4.13;1.00;;;1.00;99.90;;;;;;5030905;28;20267;-92
2023/10/30 07:12:12;;;;;;;4.55;1.08;;;1.10;99.90;;;;;;5031146;28;20312;-91
2023/10/30 07:14:39;;;;;;;3.38;1.00;;;1.20;99.90;;;;;;5030250;28;20210;-92
2023/10/30 07:17:07;;;;;;;29.30;2.15;;;1.20;99.90;;;;;;5048134;28;20182;-91
2023/10/30 07:19:35;;;;;;;3.38;0.82;;;1.20;99.90;;;;;;5032151;28;20182;-90
2023/10/30 07:22:04;;;;;;;7.47;1.30;;;1.20;99.90;;;;;;5045897;28;20537;-92
2023/10/30 07:24:32;;;;;;;1.25;0.88;;;1.20;99.90;;;;;;5030511;28;20196;-90
2023/10/30 07:27:00;;;;;;;10.15;1.30;;;1.20;99.90;;;;;;5046950;28;20213;-91
2023/10/30 07:29:28;;;;;;;2.60;1.10;;;1.20;99.90;;;;;;5047104;28;20538;-91
2023/10/30 07:31:56;;;;;;;7.57;1.10;;;1.20;99.90;;;;;;5046449;28;20271;-90
2023/10/30 07:34:23;;;;;;;3.65;1.38;;;1.20;99.90;;;;;;5050680;28;20226;-89
2023/10/30 07:36:51;;;;;;;2.50;1.33;;;1.20;99.90;;;;;;5026360;28;20198;-88
2023/10/30 07:39:19;;;;;;;2.00;1.27;;;1.20;99.90;;;;;;5025840;28;20226;-88
2023/10/30 07:41:46;;;;;;;15.00;1.83;;;1.20;99.90;;;;;;5009260;28;20194;-89
2023/10/30 07:44:14;;;;;;;3.97;1.48;;;1.20;99.90;;;;;;5025866;28;20205;-89
2023/10/30 07:46:42;;;;;;;2.28;1.35;;;1.30;99.90;;;;;;5026711;28;20557;-89
2023/10/30 07:49:09;;;;;;;10.77;2.28;;;1.30;99.90;;;;;;5025805;28;20226;-89
2023/10/30 07:51:37;;;;;;;4.72;1.58;;;1.30;99.90;;;;;;5025183;28;20193;-88
2023/10/30 07:54:07;;;;;;;4.45;1.42;;;1.30;99.90;;;;;;4993264;28;20221;-90
2023/10/30 07:56:39;;;;;;;3.92;1.88;;;1.40;99.90;;;;;;5057231;28;20191;-89
2023/10/30 07:59:07;;;;;;;4.22;1.60;;;1.40;99.90;;;;;;5030391;28;20248;-90
2023/10/30 08:01:35;;;;;;;5.57;1.85;;;1.40;99.90;;;;;;5029141;28;20186;-88
2023/10/30 08:04:03;;;;;;;6.63;1.92;;;1.40;99.90;;;;;;5028566;28;20182;-88
2023/10/30 08:06:32;;;;;;;5.07;2.03;;;1.40;99.90;;;;;;5061374;28;20297;-90
2023/10/30 08:09:00;;;;;;;6.10;2.13;;;1.40;99.90;;;;;;5029014;28;20194;-90
2023/10/30 08:11:27;;;;;;;23.00;2.25;;;1.40;99.90;;;;;;5028207;28;20247;-88
2023/10/30 08:13:55;;;;;;;4.55;1.65;;;1.40;99.90;;;;;;5061585;28;20213;-88
2023/10/30 08:16:23;;;;;;;10.73;1.75;;;1.40;99.90;;;;;;5028753;28;20221;-88
2023/10/30 08:18:51;;;;;;;5.25;2.10;;;1.40;99.90;;;;;;5016998;28;20301;-89
2023/10/30 08:21:19;;;;;;;24.70;3.53;;;1.50;99.90;;;;;;5008712;28;20249;-88
2023/10/30 08:23:46;;;;;;;6.88;2.33;;;1.50;99.90;;;;;;4992256;28;20206;-89
2023/10/30 08:26:14;;;;;;;16.70;2.40;;;1.60;99.90;;;;;;5041401;28;20568;-88
2023/10/30 08:28:44;;;;;;;2.25;1.20;;;1.50;99.90;;;;;;5042056;28;20680;-90
2023/10/30 08:31:15;;;;;;;10.82;3.17;;;1.40;99.90;;;;;;5041576;28;20210;-89
2023/10/30 08:33:43;;;;;;;11.75;3.88;;;1.50;99.90;;;;;;5024512;28;20321;-91
2023/10/30 08:36:22;;;;;;;17.70;4.28;;;1.50;99.90;;;;;;5008732;28;20205;-89
2023/10/30 08:38:50;;;;;;;20.27;7.40;;;1.50;99.90;;;;;;5041693;28;20187;-90
2023/10/30 08:41:23;;;;;;;21.17;7.25;;;1.70;99.90;;;;;;5008899;28;20524;-90
2023/10/30 08:43:51;;;;;;;25.52;8.00;;;1.70;99.90;;;;;;5024491;28;20187;-90
2023/10/30 08:46:20;;;;;;;21.23;11.27;;;1.80;99.90;;;;;;5040851;28;20600;-89
2023/10/30 08:48:48;;;;;;;48.95;18.40;;;1.90;99.90;;;;;;5024847;28;20282;-89
2023/10/30 08:51:16;;;;;;;20.67;13.15;;;1.90;99.90;;;;;;5007742;28;20293;-88
2023/10/30 08:53:44;;;;;;;24.42;13.63;;;2.10;99.90;;;;;;5023864;28;20264;-88
2023/10/30 08:56:11;;;;;;;32.45;15.60;;;2.30;99.90;;;;;;5024136;28;20194;-89
2023/10/30 08:58:39;;;;;;;66.45;21.73;;;2.40;99.90;;;;;;4991744;28;20195;-89
2023/10/30 09:01:07;;;;;;;58.33;20.33;;;2.60;99.90;;;;;;5036236;28;20190;-89
2023/10/30 09:03:35;;;;;;;87.93;32.17;;;2.80;99.90;;;;;;5023789;28;20661;-90
2023/10/30 09:06:03;;;;;;;55.88;30.55;;;3.10;99.90;;;;;;5007792;28;20186;-88
2023/10/30 09:08:31;;;;;;;88.45;41.33;;;2.90;99.90;;;;;;5040346;28;20700;-89
2023/10/30 09:10:58;;;;;;;110.30;41.13;;;3.30;99.90;;;;;;5008007;28;20202;-91
2023/10/30 09:13:26;;;;;;;52.83;28.20;;;3.30;99.90;;;;;;5007877;28;20944;-90
2023/10/30 09:15:54;;;;;;;163.07;37.03;;;3.40;99.90;;;;;;5022882;28;20199;-88
2023/10/30 09:18:22;;;;;;;81.55;29.75;;;3.60;99.90;;;;;;5007358;28;20281;-89
2023/10/30 09:20:50;;;;;;;82.57;35.53;;;3.70;99.90;;;;;;5009528;28;21023;-89
2023/10/30 09:23:18;;;;;;;76.47;33.00;;;3.90;99.90;;;;;;5029795;28;20208;-85
2023/10/30 09:25:46;;;;;;;89.50;43.10;;;3.90;99.90;;;;;;5007387;28;20253;-85
2023/10/30 09:28:13;;;;;;;76.00;43.03;;;4.60;99.90;;;;;;5007329;28;20197;-85
2023/10/30 09:30:41;;;;;;;123.47;41.70;;;4.90;99.90;;;;;;5007208;28;20186;-86
2023/10/30 09:33:09;;;;;;;58.50;37.33;;;4.90;99.90;;;;;;5005399;28;20194;-85
2023/10/30 09:35:38;;;;;;;46.63;32.08;;;5.00;99.90;;;;;;5006160;28;20234;-87
2023/10/30 09:38:06;;;;;;;49.33;30.33;;;4.70;99.90;;;;;;4988972;28;20664;-87
2023/10/30 09:40:34;;;;;;;35.90;22.10;;;4.90;99.90;;;;;;5005451;28;20229;-86
2023/10/30 09:43:04;;;;;;;38.63;22.95;;;4.90;99.90;;;;;;5007466;28;20182;-87
2023/10/30 09:45:34;;;;;;;35.17;22.13;;;5.40;99.90;;;;;;5038682;28;20204;-86
2023/10/30 09:48:03;;;;;;;32.40;22.05;;;5.50;99.90;;;;;;5008199;28;20570;-89
2023/10/30 09:50:31;;;;;;;26.55;18.48;;;5.80;99.90;;;;;;5037793;28;20280;-87
2023/10/30 09:53:00;;;;;;;27.15;17.85;;;5.70;99.90;;;;;;5006629;28;20213;-87
2023/10/30 09:55:28;;;;;;;20.98;14.20;;;6.10;99.90;;;;;;5021969;28;20219;-87
2023/10/30 09:57:56;;;;;;;16.60;9.57;;;6.60;99.90;;;;;;5008509;28;20265;-86
2023/10/30 10:00:24;;;;;;;15.50;8.85;;;6.80;99.90;;;;;;5041758;28;20903;-87
2023/10/30 10:02:52;;;;;;;8.35;5.90;;;6.90;99.90;;;;;;5025271;28;20201;-86
2023/10/30 10:05:20;;;;;;;11.93;5.80;;;7.00;99.90;;;;;;5023499;28;20205;-86
2023/10/30 10:07:49;;;;;;;10.75;5.15;;;7.00;99.90;;;;;;5038784;28;20205;-87
2023/10/30 10:10:18;;;;;;;6.55;3.95;;;7.20;99.90;;;;;;5006079;28;20563;-84
2023/10/30 10:12:50;;;;;;;8.23;3.58;;;7.60;99.90;;;;;;5005282;28;20198;-86
2023/10/30 10:15:20;;;;;;;6.93;2.83;;;7.60;99.90;;;;;;5039424;28;20254;-86
2023/10/30 10:17:51;;;;;;;3.78;2.55;;;7.70;99.90;;;;;;5008837;28;20206;-87
2023/10/30 10:20:21;;;;;;;4.68;2.67;;;7.60;99.90;;;;;;5024980;28;20186;-86
2023/10/30 10:22:49;;;;;;;7.20;2.17;;;7.70;99.90;;;;;;5021914;28;20229;-86
2023/10/30 10:25:18;;;;;;;7.20;2.05;;;7.40;99.90;;;;;;5007692;28;20201;-87
2023/10/30 10:27:49;;;;;;;2.83;1.60;;;7.70;99.90;;;;;;5022178;28;20198;-86
2023/10/30 10:30:23;;;;;;;4.43;1.60;;;7.80;99.90;;;;;;5010366;28;20660;-84
2023/10/30 10:32:52;;;;;;;4.45;1.20;;;7.90;99.90;;;;;;5009424;28;20277;-87
2023/10/30 10:35:23;;;;;;;2.40;1.20;;;8.20;99.90;;;;;;5042822;28;20227;-87
2023/10/30 10:38:07;;;;;;;3.25;1.10;;;8.10;99.90;;;;;;5025931;28;20187;-84
2023/10/30 10:40:37;;;;;;;2.38;1.00;;;8.30;99.90;;;;;;5025800;28;20665;-87
2023/10/30 10:43:08;;;;;;;1.40;0.70;;;8.20;99.90;;;;;;5009161;28;20736;-87
2023/10/30 10:45:37;;;;;;;1.80;0.90;;;8.30;99.90;;;;;;5009237;28;20669;-87
2023/10/30 10:48:07;;;;;;;0.93;0.70;;;8.30;99.90;;;;;;4993562;28;20249;-86
2023/10/30 10:50:35;;;;;;;1.25;0.85;;;8.60;99.90;;;;;;5026023;28;20580;-86
2023/10/30 10:53:05;;;;;;;1.83;1.08;;;8.50;99.90;;;;;;5025459;28;20245;-86
2023/10/30 10:55:41;;;;;;;2.10;0.90;;;8.30;99.90;;;;;;5025421;28;20210;-87
2023/10/30 10:58:20;;;;;;;1.50;0.95;;;8.10;99.90;;;;;;5029007;28;20182;-87
2023/10/30 11:00:52;;;;;;;1.10;0.90;;;8.10;99.90;;;;;;5006782;28;21070;-86
2023/10/30 11:03:21;;;;;;;1.55;1.10;;;8.00;99.90;;;;;;4992867;28;20193;-87
2023/10/30 11:05:52;;;;;;;3.03;1.38;;;7.90;99.90;;;;;;5010139;28;20278;-85
2023/10/30 11:08:39;;;;;;;2.25;1.20;;;7.80;99.90;;;;;;5010413;28;20163;-86
2023/10/30 11:11:25;;;;;;;2.78;1.33;;;7.90;99.90;;;;;;5010686;28;20183;-86
2023/10/30 11:14:20;;;;;;;2.08;1.38;;;7.80;99.90;;;;;;5010395;28;20183;-86
2023/10/30 11:17:02;;;;;;;2.80;1.77;;;7.70;99.90;;;;;;5041649;28;20302;-87
2023/10/30 11:19:32;;;;;;;4.15;1.45;;;7.70;99.90;;;;;;5025448;28;20186;-88
2023/10/30 11:22:00;;;;;;;4.05;1.50;;;7.60;99.90;;;;;;5009167;28;20833;-85
2023/10/30 11:24:39;;;;;;;2.13;1.38;;;7.60;99.90;;;;;;5041724;28;20201;-88
2023/10/30 11:27:26;;;;;;;2.80;1.60;;;7.50;99.90;;;;;;5018911;28;20186;-87
2023/10/30 11:30:04;;;;;;;3.15;1.52;;;7.60;99.90;;;;;;5057427;28;20221;-86
2023/10/30 11:32:37;;;;;;;5.13;1.42;;;7.60;99.90;;;;;;5025843;28;20190;-84
2023/10/30 11:35:05;;;;;;;5.75;1.70;;;7.50;99.90;;;;;;5008287;28;20230;-86
2023/10/30 11:37:35;;;;;;;3.22;1.70;;;7.50;99.90;;;;;;5017356;28;20206;-87
2023/10/30 11:40:08;;;;;;;2.20;1.50;;;7.60;99.90;;;;;;5027977;28;20193;-86
2023/10/30 11:42:45;;;;;;;2.60;1.63;;;7.50;99.90;;;;;;5017354;28;20195;-85
2023/10/30 11:45:28;;;;;;;3.08;1.80;;;7.40;99.90;;;;;;5012838;28;20197;-87
2023/10/30 11:48:05;;;;;;;2.40;1.70;;;7.40;99.90;;;;;;5055514;28;20828;-87
2023/10/30 11:50:45;;;;;;;2.67;1.70;;;7.40;99.90;;;;;;5036148;28;20190;-88
2023/10/30 11:53:19;;;;;;;2.70;1.70;;;7.30;99.90;;;;;;5015679;28;20670;-86
2023/10/30 11:55:50;;;;;;;2.70;2.03;;;7.40;99.90;;;;;;5010513;28;20209;-86
2023/10/30 11:58:19;;;;;;;4.20;1.98;;;7.40;99.90;;;;;;5029937;28;20194;-87
2023/10/30 12:00:47;;;;;;;4.15;2.20;;;7.40;99.90;;;;;;5033224;28;20264;-88
2023/10/30 12:03:16;;;;;;;3.88;1.63;;;7.40;99.90;;;;;;5023250;28;20194;-87
2023/10/30 12:05:44;;;;;;;2.38;1.67;;;7.40;99.90;;;;;;5043703;28;20185;-86
2023/10/30 12:08:13;;;;;;;3.50;1.65;;;7.40;99.90;;;;;;5026593;28;20202;-88
2023/10/30 12:10:40;;;;;;;2.05;1.20;;;7.40;99.90;;;;;;5028752;28;20193;-87
2023/10/30 12:13:10;;;;;;;2.95;1.60;;;7.40;99.90;;;;;;5043559;28;20190;-87
2023/10/30 12:15:37;;;;;;;1.63;1.30;;;7.40;99.90;;;;;;5026245;28;20210;-87
2023/10/30 12:18:05;;;;;;;2.25;1.52;;;7.50;99.90;;;;;;5026594;28;20272;-88
2023/10/30 12:20:33;;;;;;;3.13;1.30;;;7.50;99.90;;;;;;5011344;28;20269;-86
2023/10/30 12:23:01;;;;;;;1.83;1.25;;;7.50;99.90;;;;;;5043386;28;20197;-86
2023/10/30 12:25:29;;;;;;;1.20;0.90;;;7.50;99.90;;;;;;5026944;28;20730;-86
2023/10/30 12:28:04;;;;;;;1.33;0.82;;;7.50;99.90;;;;;;5023084;28;20202;-87
2023/10/30 12:30:38;;;;;;;1.17;0.93;;;7.40;99.90;;;;;;5040945;28;20213;-87
2023/10/30 12:33:12;;;;;;;2.80;1.20;;;7.50;99.90;;;;;;5007376;28;20190;-87
2023/10/30 12:35:41;;;;;;;2.65;1.00;;;7.50;99.90;;;;;;5040163;28;20240;-87
2023/10/30 12:38:14;;;;;;;1.30;0.90;;;7.50;99.90;;;;;;5008758;28;20262;-87
2023/10/30 12:40:44;;;;;;;1.17;0.85;;;7.50;99.90;;;;;;5040205;28;20669;-87
2023/10/30 12:43:13;;;;;;;1.83;0.70;;;7.60;99.90;;;;;;4990639;28;20920;-88
2023/10/30 12:45:41;;;;;;;2.90;0.90;;;7.50;99.90;;;;;;5010990;28;20198;-86
2023/10/30 12:48:08;;;;;;;0.70;0.70;;;7.50;99.90;;;;;;5043478;28;20198;-85
2023/10/30 12:50:37;;;;;;;1.40;0.93;;;7.50;99.90;;;;;;4989639;28;20199;-86
2023/10/30 12:53:05;;;;;;;1.63;0.90;;;7.60;99.90;;;;;;5007297;28;20190;-88
2023/10/30 12:55:32;;;;;;;1.27;0.73;;;7.60;99.90;;;;;;5010000;28;20253;-87
2023/10/30 12:58:00;;;;;;;1.20;0.65;;;7.50;99.90;;;;;;5042109;28;20202;-87
2023/10/30 13:00:28;;;;;;;0.80;0.70;;;7.60;99.90;;;;;;5027036;28;20550;-86
2023/10/30 13:02:55;;;;;;;1.08;0.75;;;7.60;99.90;;;;;;5009572;28;20186;-88
2023/10/30 13:05:23;;;;;;;1.30;0.80;;;7.60;99.90;;;;;;5025989;28;20264;-85